Time;durP1;ratioP1;P1;durP2;ratioP2;P2;SDS_P1;SDS_P2;PMS_P1;PMS_P2;Temp;Humidity;BMP_temperature;BMP_pressure;BME280_temperature;BME280_humidity;BME280_pressure;Samples;Min_cycle;Max_cycle;Signal;HPM_P1;HPM_P2
2021/10/20 00:01:43;;;;;;;12.25;7.68;;;14.10;63.50;;;;;;6276842;22;20439;-64
2021/10/20 00:04:09;;;;;;;11.82;7.93;;;14.10;63.40;;;;;;6276852;22;19996;-64
2021/10/20 00:06:35;;;;;;;15.60;8.57;;;14.00;63.40;;;;;;6276846;22;20323;-64
2021/10/20 00:09:01;;;;;;;12.07;8.57;;;14.00;63.50;;;;;;6276824;22;20003;-64
2021/10/20 00:11:27;;;;;;;16.42;10.13;;;14.00;63.60;;;;;;6276794;22;20010;-64
2021/10/20 00:13:53;;;;;;;16.30;10.18;;;13.90;63.80;;;;;;6276557;22;20090;-64
2021/10/20 00:16:19;;;;;;;17.52;9.55;;;13.90;63.90;;;;;;6276841;22;20071;-64
2021/10/20 00:18:49;;;;;;;16.33;9.40;;;13.90;63.90;;;;;;6276716;22;20078;-64
2021/10/20 00:21:19;;;;;;;18.00;10.18;;;13.90;63.90;;;;;;6276727;22;20010;-64
2021/10/20 00:23:45;;;;;;;14.10;9.30;;;13.80;64.10;;;;;;6276702;22;20308;-64
2021/10/20 00:26:11;;;;;;;17.13;9.88;;;13.80;64.10;;;;;;6276664;22;20359;-64
2021/10/20 00:28:36;;;;;;;18.40;9.10;;;13.80;64.10;;;;;;6276576;22;20004;-65
2021/10/20 00:31:02;;;;;;;19.50;11.52;;;13.70;64.00;;;;;;6276665;22;20000;-65
2021/10/20 00:33:28;;;;;;;14.13;8.45;;;13.70;64.30;;;;;;6276628;22;19999;-65
2021/10/20 00:35:54;;;;;;;21.25;11.48;;;13.70;64.30;;;;;;6276554;22;20000;-65
2021/10/20 00:38:19;;;;;;;18.15;9.48;;;13.60;64.40;;;;;;6276497;22;20003;-66
2021/10/20 00:40:45;;;;;;;17.40;10.20;;;13.60;64.60;;;;;;6276547;22;20007;-65
2021/10/20 00:43:11;;;;;;;17.30;9.57;;;13.60;64.60;;;;;;6276632;22;19999;-65
2021/10/20 00:45:37;;;;;;;16.40;9.73;;;13.50;64.60;;;;;;6276524;22;20378;-65
2021/10/20 00:48:03;;;;;;;17.05;9.18;;;13.50;64.60;;;;;;6276387;22;20004;-65
2021/10/20 00:50:29;;;;;;;16.20;9.82;;;13.50;64.60;;;;;;6276438;22;20402;-65
2021/10/20 00:52:54;;;;;;;19.30;10.43;;;13.50;64.70;;;;;;6276416;22;19996;-65
2021/10/20 00:55:20;;;;;;;17.38;10.40;;;13.50;64.80;;;;;;6276465;22;19996;-66
2021/10/20 00:57:47;;;;;;;19.25;10.57;;;13.50;64.90;;;;;;6276510;22;20010;-65
2021/10/20 01:00:15;;;;;;;17.17;10.57;;;13.40;64.90;;;;;;6276166;22;20004;-66
2021/10/20 01:02:41;;;;;;;16.08;9.80;;;13.40;64.90;;;;;;6276161;22;20308;-65
2021/10/20 01:05:08;;;;;;;15.00;9.25;;;13.40;64.90;;;;;;6276138;22;20000;-65
2021/10/20 01:07:38;;;;;;;13.35;8.48;;;13.40;64.90;;;;;;6276057;22;20007;-65
2021/10/20 01:10:04;;;;;;;15.10;8.80;;;13.40;65.00;;;;;;6276179;22;19999;-65
2021/10/20 01:12:32;;;;;;;16.38;9.45;;;13.40;65.10;;;;;;6274367;22;20016;-65
2021/10/20 01:14:58;;;;;;;25.45;11.60;;;13.40;65.10;;;;;;6274560;22;20309;-65
2021/10/20 01:17:24;;;;;;;31.52;11.77;;;13.30;65.10;;;;;;6276207;22;20053;-64
2021/10/20 01:19:50;;;;;;;26.00;10.95;;;13.30;65.20;;;;;;6276064;22;20003;-65
2021/10/20 01:22:16;;;;;;;17.73;10.93;;;13.30;65.20;;;;;;6276110;22;20003;-65
2021/10/20 01:24:42;;;;;;;24.95;11.02;;;13.30;65.50;;;;;;6274442;22;20035;-65
2021/10/20 01:27:09;;;;;;;15.45;9.52;;;13.30;65.60;;;;;;6275992;22;20023;-66
2021/10/20 01:29:35;;;;;;;23.40;10.63;;;13.30;65.60;;;;;;6276093;22;19996;-65
2021/10/20 01:32:07;;;;;;;24.27;9.10;;;13.20;65.50;;;;;;6276155;22;20000;-65
2021/10/20 01:34:34;;;;;;;22.92;9.35;;;13.20;65.50;;;;;;6276200;22;20087;-65
2021/10/20 01:37:03;;;;;;;18.90;9.90;;;13.20;65.50;;;;;;6276049;22;20070;-65
2021/10/20 01:39:28;;;;;;;18.40;9.55;;;13.20;65.50;;;;;;6276164;22;20010;-65
2021/10/20 01:41:54;;;;;;;16.13;9.13;;;13.20;65.50;;;;;;6276115;22;20370;-65
2021/10/20 01:44:20;;;;;;;20.92;9.27;;;13.20;65.50;;;;;;6276156;22;20003;-65
2021/10/20 01:46:46;;;;;;;21.27;8.82;;;13.20;65.40;;;;;;6275930;22;20075;-65
2021/10/20 01:49:13;;;;;;;15.90;10.15;;;13.10;65.40;;;;;;6276016;22;20007;-65
2021/10/20 01:51:38;;;;;;;16.27;8.80;;;13.10;65.50;;;;;;6276016;22;20000;-65
2021/10/20 01:54:06;;;;;;;20.77;10.15;;;13.10;65.50;;;;;;6276101;22;20007;-65
2021/10/20 01:56:32;;;;;;;14.55;9.32;;;13.10;65.60;;;;;;6276053;22;20496;-65
2021/10/20 01:58:58;;;;;;;17.95;9.27;;;13.10;65.50;;;;;;6276073;22;20004;-65
2021/10/20 02:01:25;;;;;;;16.20;8.90;;;13.10;65.70;;;;;;6275951;22;20011;-65
2021/10/20 02:03:50;;;;;;;15.57;8.95;;;13.00;65.80;;;;;;6276054;22;20004;-65
2021/10/20 02:06:18;;;;;;;22.40;7.43;;;13.00;65.80;;;;;;6274480;22;20483;-65
2021/10/20 02:08:45;;;;;;;12.15;7.53;;;13.00;65.80;;;;;;6275871;22;19999;-65
2021/10/20 02:11:11;;;;;;;11.90;6.72;;;13.00;65.80;;;;;;6275989;22;20000;-65
2021/10/20 02:13:40;;;;;;;15.63;8.70;;;13.00;65.80;;;;;;6276531;22;20039;-65
2021/10/20 02:16:06;;;;;;;11.80;6.68;;;13.00;65.90;;;;;;6277732;22;20049;-65
2021/10/20 02:18:32;;;;;;;17.42;6.65;;;13.00;65.70;;;;;;6277818;22;20079;-65
2021/10/20 02:20:58;;;;;;;11.00;5.95;;;13.00;65.70;;;;;;6276274;22;20316;-65
2021/10/20 02:23:24;;;;;;;10.55;5.75;;;13.00;65.70;;;;;;6277760;22;20008;-65
2021/10/20 02:25:50;;;;;;;12.57;5.30;;;12.90;65.70;;;;;;6277724;22;20122;-65
2021/10/20 02:28:16;;;;;;;10.07;5.70;;;12.90;65.70;;;;;;6277534;22;20027;-65
2021/10/20 02:30:42;;;;;;;13.43;5.93;;;12.90;65.70;;;;;;6277700;22;20000;-65
2021/10/20 02:33:09;;;;;;;8.40;4.72;;;12.90;65.70;;;;;;6277674;22;20366;-65
2021/10/20 02:35:35;;;;;;;11.15;4.78;;;12.90;65.80;;;;;;6277608;22;20053;-65
2021/10/20 02:38:01;;;;;;;13.10;4.75;;;12.90;65.80;;;;;;6277618;22;20031;-66
2021/10/20 02:40:27;;;;;;;15.45;5.28;;;12.90;65.80;;;;;;6277710;22;20003;-65
2021/10/20 02:42:53;;;;;;;8.32;5.60;;;12.90;65.80;;;;;;6277574;22;20336;-66
2021/10/20 02:45:19;;;;;;;8.30;5.78;;;12.80;65.80;;;;;;6277527;22;20000;-66
2021/10/20 02:47:46;;;;;;;7.90;5.57;;;12.80;65.80;;;;;;6277414;22;20004;-66
2021/10/20 02:50:12;;;;;;;11.93;5.90;;;12.80;65.80;;;;;;6277568;22;20420;-66
2021/10/20 02:52:39;;;;;;;12.13;5.50;;;12.80;65.90;;;;;;6277559;22;20000;-66
2021/10/20 02:55:06;;;;;;;8.75;5.45;;;12.80;65.90;;;;;;6277366;22;19996;-65
2021/10/20 02:57:32;;;;;;;15.70;6.35;;;12.80;65.90;;;;;;6277403;22;20027;-66
2021/10/20 02:59:58;;;;;;;9.88;6.05;;;12.80;65.90;;;;;;6277233;22;20023;-65
2021/10/20 03:02:25;;;;;;;10.38;6.25;;;12.80;65.90;;;;;;6277329;22;20461;-65
2021/10/20 03:04:50;;;;;;;12.35;6.13;;;12.80;65.90;;;;;;6277368;22;20004;-65
2021/10/20 03:07:16;;;;;;;9.40;6.45;;;12.80;66.10;;;;;;6277266;22;20010;-66
2021/10/20 03:09:42;;;;;;;13.32;6.13;;;12.80;65.90;;;;;;6277323;22;20007;-65
2021/10/20 03:12:08;;;;;;;20.23;6.07;;;12.70;65.90;;;;;;6277113;22;20000;-66
2021/10/20 03:14:34;;;;;;;23.70;7.20;;;12.80;66.00;;;;;;6277330;22;20010;-65
2021/10/20 03:17:00;;;;;;;14.77;6.82;;;12.70;65.90;;;;;;6277290;22;19995;-65
2021/10/20 03:19:26;;;;;;;10.85;6.47;;;12.70;66.00;;;;;;6277199;22;20057;-66
2021/10/20 03:21:51;;;;;;;13.13;7.78;;;12.70;66.00;;;;;;6277257;22;20000;-65
2021/10/20 03:24:17;;;;;;;11.55;7.13;;;12.70;66.10;;;;;;6276937;22;20046;-65
2021/10/20 03:26:43;;;;;;;15.55;7.00;;;12.70;66.10;;;;;;6277110;22;19999;-65
2021/10/20 03:29:12;;;;;;;20.80;7.47;;;12.70;66.10;;;;;;6277024;22;20023;-66
2021/10/20 03:31:37;;;;;;;10.07;5.93;;;12.70;66.10;;;;;;6277003;22;20003;-66
2021/10/20 03:34:03;;;;;;;10.27;6.65;;;12.70;66.10;;;;;;6276968;22;20000;-65
2021/10/20 03:36:29;;;;;;;11.32;6.47;;;12.70;66.10;;;;;;6277032;22;19996;-65
2021/10/20 03:38:55;;;;;;;12.15;7.13;;;12.70;66.20;;;;;;6277049;22;20003;-65
2021/10/20 03:41:21;;;;;;;11.98;8.20;;;12.60;66.20;;;;;;6276829;22;20106;-65
2021/10/20 03:43:46;;;;;;;14.45;9.20;;;12.60;66.30;;;;;;6276803;22;20006;-64
2021/10/20 03:46:12;;;;;;;13.73;8.13;;;12.60;66.50;;;;;;6276907;22;20074;-64
2021/10/20 03:48:39;;;;;;;12.80;7.18;;;12.60;66.60;;;;;;6276847;22;19999;-65
2021/10/20 03:51:05;;;;;;;11.07;7.15;;;12.60;66.50;;;;;;6276888;22;20086;-64
2021/10/20 03:53:31;;;;;;;14.77;7.53;;;12.60;66.40;;;;;;6276855;22;20324;-64
2021/10/20 03:55:56;;;;;;;17.95;7.70;;;12.60;66.40;;;;;;6276814;22;19996;-64
2021/10/20 03:58:22;;;;;;;10.27;6.90;;;12.60;66.40;;;;;;6276713;22;20004;-65
2021/10/20 04:00:49;;;;;;;14.70;6.80;;;12.60;66.40;;;;;;6276617;22;20331;-65
2021/10/20 04:03:15;;;;;;;11.38;8.10;;;12.60;66.40;;;;;;6276640;22;20258;-64
2021/10/20 04:05:40;;;;;;;26.63;9.32;;;12.60;66.40;;;;;;6276648;22;20636;-64
2021/10/20 04:08:06;;;;;;;12.10;8.15;;;12.60;66.50;;;;;;6276417;22;20362;-64
2021/10/20 04:10:32;;;;;;;18.65;9.20;;;12.60;66.70;;;;;;6276516;22;20000;-64
2021/10/20 04:12:58;;;;;;;18.90;8.93;;;12.60;66.70;;;;;;6276542;22;20016;-64
2021/10/20 04:15:25;;;;;;;14.13;8.43;;;12.60;66.80;;;;;;6276597;22;20000;-64
2021/10/20 04:17:52;;;;;;;13.93;8.73;;;12.60;66.90;;;;;;6276569;22;20066;-64
2021/10/20 04:20:20;;;;;;;16.80;9.18;;;12.60;66.90;;;;;;6276596;22;20027;-65
2021/10/20 04:22:48;;;;;;;17.05;9.43;;;12.60;67.00;;;;;;6276377;22;20038;-65
2021/10/20 04:25:15;;;;;;;11.18;7.50;;;12.60;67.10;;;;;;6276361;22;20086;-65
2021/10/20 04:27:41;;;;;;;11.98;7.72;;;12.60;66.90;;;;;;6276347;22;20022;-64
2021/10/20 04:30:09;;;;;;;15.15;8.80;;;12.60;66.80;;;;;;6276358;22;20327;-65
2021/10/20 04:32:35;;;;;;;14.80;8.15;;;12.50;66.90;;;;;;6276270;22;20023;-66
2021/10/20 04:35:01;;;;;;;17.67;9.52;;;12.50;66.90;;;;;;6276226;22;19995;-66
2021/10/20 04:37:29;;;;;;;16.88;9.43;;;12.50;67.30;;;;;;6276284;22;20004;-66
2021/10/20 04:39:57;;;;;;;13.95;8.55;;;12.50;67.50;;;;;;6276404;22;20004;-66
2021/10/20 04:42:26;;;;;;;13.60;7.63;;;12.50;67.40;;;;;;6276503;22;20075;-66
2021/10/20 04:44:52;;;;;;;10.60;7.03;;;12.50;67.30;;;;;;6276364;22;20450;-66
2021/10/20 04:47:18;;;;;;;13.52;8.48;;;12.50;67.20;;;;;;6276117;22;20004;-66
2021/10/20 04:49:44;;;;;;;11.82;7.70;;;12.50;67.10;;;;;;6276311;22;19995;-66
2021/10/20 04:52:10;;;;;;;15.75;7.55;;;12.50;67.10;;;;;;6276163;22;20011;-66
2021/10/20 04:54:36;;;;;;;16.55;7.25;;;12.50;67.10;;;;;;6276303;22;20000;-66
2021/10/20 04:57:02;;;;;;;12.77;7.85;;;12.50;67.20;;;;;;6276340;22;20000;-65
2021/10/20 04:59:31;;;;;;;15.40;7.63;;;12.40;67.10;;;;;;6276039;22;20019;-66
2021/10/20 05:01:58;;;;;;;10.75;6.68;;;12.40;67.00;;;;;;6276107;22;20070;-66
2021/10/20 05:04:24;;;;;;;10.48;7.03;;;12.40;67.00;;;;;;6276091;22;20000;-66
2021/10/20 05:06:50;;;;;;;11.40;7.03;;;12.40;67.00;;;;;;6276050;22;20007;-65
2021/10/20 05:09:16;;;;;;;10.07;6.55;;;12.40;67.10;;;;;;6276264;22;20092;-66
2021/10/20 05:11:42;;;;;;;9.60;6.57;;;12.30;67.00;;;;;;6276622;22;20374;-65
2021/10/20 05:14:08;;;;;;;12.80;7.32;;;12.30;66.90;;;;;;6276974;22;20068;-65
2021/10/20 05:16:34;;;;;;;17.80;10.10;;;12.30;67.00;;;;;;6276662;22;20000;-65
2021/10/20 05:19:00;;;;;;;19.05;10.20;;;12.30;67.00;;;;;;6276615;22;20073;-65
2021/10/20 05:21:25;;;;;;;32.78;17.52;;;12.30;67.10;;;;;;6276477;22;20026;-65
2021/10/20 05:23:51;;;;;;;43.42;22.63;;;12.20;67.00;;;;;;6275913;22;19999;-66
2021/10/20 05:26:18;;;;;;;39.58;17.92;;;12.20;67.00;;;;;;6276144;22;20004;-65
2021/10/20 05:28:44;;;;;;;23.98;12.50;;;12.20;67.20;;;;;;6275699;22;20004;-65
2021/10/20 05:31:10;;;;;;;19.25;10.80;;;12.20;67.20;;;;;;6276046;22;20027;-66
2021/10/20 05:33:37;;;;;;;17.55;9.98;;;12.20;67.30;;;;;;6276109;22;19996;-65
2021/10/20 05:36:03;;;;;;;16.02;10.02;;;12.10;67.30;;;;;;6276005;22;20022;-65
2021/10/20 05:38:29;;;;;;;17.02;8.68;;;12.20;67.40;;;;;;6276112;22;20004;-65
2021/10/20 05:40:54;;;;;;;12.68;8.13;;;12.10;67.30;;;;;;6275638;22;20075;-65
2021/10/20 05:43:20;;;;;;;14.27;9.43;;;12.10;67.30;;;;;;6273897;22;20008;-65
2021/10/20 05:45:47;;;;;;;17.92;8.27;;;12.10;67.40;;;;;;6274023;22;20010;-65
2021/10/20 05:48:15;;;;;;;17.65;9.40;;;12.10;67.50;;;;;;6277177;22;20075;-66
2021/10/20 05:50:41;;;;;;;16.73;9.48;;;12.10;67.50;;;;;;6277672;22;20053;-65
2021/10/20 05:53:06;;;;;;;16.30;9.05;;;12.10;67.60;;;;;;6277369;22;20004;-66
2021/10/20 05:55:32;;;;;;;14.27;7.53;;;12.10;67.60;;;;;;6277609;22;20129;-65
2021/10/20 05:57:58;;;;;;;12.00;8.20;;;12.10;67.70;;;;;;6277613;22;20004;-64
2021/10/20 06:00:24;;;;;;;13.50;8.27;;;12.10;67.70;;;;;;6277300;22;20330;-65
2021/10/20 06:02:50;;;;;;;15.75;8.05;;;12.10;67.80;;;;;;6277915;22;20004;-65
2021/10/20 06:05:16;;;;;;;21.85;9.05;;;12.10;68.00;;;;;;6275889;22;20424;-65
2021/10/20 06:07:43;;;;;;;16.33;9.13;;;12.10;68.00;;;;;;6277425;22;20003;-65
2021/10/20 06:10:12;;;;;;;14.88;8.40;;;12.20;68.20;;;;;;6277618;22;20439;-65
2021/10/20 06:12:38;;;;;;;14.77;8.40;;;12.20;68.20;;;;;;6277592;22;20444;-65
2021/10/20 06:15:06;;;;;;;17.63;8.48;;;12.30;68.20;;;;;;6277495;22;20462;-65
2021/10/20 06:17:35;;;;;;;23.73;7.15;;;12.30;68.20;;;;;;6277291;22;20000;-64
2021/10/20 06:20:02;;;;;;;28.27;7.85;;;12.30;68.20;;;;;;6277602;22;20006;-63
2021/10/20 06:22:28;;;;;;;33.65;7.65;;;12.40;68.30;;;;;;6277472;22;20000;-65
2021/10/20 06:24:54;;;;;;;17.17;7.38;;;12.40;68.40;;;;;;6277491;22;20004;-66
2021/10/20 06:27:20;;;;;;;21.20;6.78;;;12.50;68.40;;;;;;6277494;22;20034;-65
2021/10/20 06:29:46;;;;;;;18.38;7.45;;;12.50;68.40;;;;;;6275539;22;20042;-64
2021/10/20 06:32:11;;;;;;;11.07;7.13;;;12.60;68.40;;;;;;6277699;22;20000;-64
2021/10/20 06:34:37;;;;;;;13.32;6.72;;;12.70;68.40;;;;;;6277388;22;20080;-65
2021/10/20 06:37:03;;;;;;;7.80;5.80;;;12.70;68.40;;;;;;6277206;22;20007;-65
2021/10/20 06:39:29;;;;;;;10.48;6.25;;;12.80;68.50;;;;;;6277347;22;20004;-65
2021/10/20 06:41:55;;;;;;;10.95;6.25;;;12.80;68.40;;;;;;6277357;22;20447;-65
2021/10/20 06:44:21;;;;;;;12.55;6.18;;;12.90;68.40;;;;;;6277436;22;20432;-66
2021/10/20 06:46:47;;;;;;;15.23;6.10;;;12.90;68.30;;;;;;6277394;22;20000;-64
2021/10/20 06:49:13;;;;;;;17.45;7.53;;;13.00;68.20;;;;;;6275616;22;20011;-65
2021/10/20 06:51:40;;;;;;;17.25;7.30;;;13.00;68.20;;;;;;6277400;22;19999;-65
2021/10/20 06:54:06;;;;;;;11.65;7.07;;;13.10;68.20;;;;;;6277437;22;20003;-64
2021/10/20 06:56:32;;;;;;;15.13;7.70;;;13.20;68.30;;;;;;6277475;22;19999;-65
2021/10/20 06:58:58;;;;;;;13.73;7.25;;;13.30;68.20;;;;;;6276948;22;20379;-65
2021/10/20 07:01:23;;;;;;;15.73;7.90;;;13.40;68.20;;;;;;6277253;22;20034;-65
2021/10/20 07:03:50;;;;;;;13.25;6.70;;;13.40;68.00;;;;;;6277353;22;20481;-65
2021/10/20 07:06:16;;;;;;;11.48;6.55;;;13.50;68.00;;;;;;6277349;22;20053;-65
2021/10/20 07:08:41;;;;;;;12.93;7.60;;;13.50;67.80;;;;;;6277125;22;20190;-65
2021/10/20 07:11:07;;;;;;;9.95;5.82;;;13.60;67.80;;;;;;6277284;22;20014;-65
2021/10/20 07:13:36;;;;;;;15.35;5.93;;;13.70;67.70;;;;;;6276947;22;20015;-65
2021/10/20 07:16:02;;;;;;;10.38;5.25;;;13.80;67.60;;;;;;6277241;22;20000;-65
2021/10/20 07:18:29;;;;;;;8.70;5.57;;;13.80;67.40;;;;;;6277195;22;20099;-65
2021/10/20 07:20:55;;;;;;;11.00;6.13;;;13.90;67.30;;;;;;6277128;22;20007;-65
2021/10/20 07:23:21;;;;;;;9.88;6.05;;;14.00;67.10;;;;;;6277163;22;20000;-65
2021/10/20 07:25:46;;;;;;;7.97;5.78;;;14.10;67.00;;;;;;6276884;22;20027;-65
2021/10/20 07:28:12;;;;;;;10.68;5.93;;;14.10;66.90;;;;;;6276606;22;20015;-65
2021/10/20 07:30:38;;;;;;;14.88;6.30;;;14.20;66.80;;;;;;6276917;22;19996;-65
2021/10/20 07:33:05;;;;;;;11.55;5.43;;;14.30;66.70;;;;;;6276869;22;20069;-65
2021/10/20 07:35:31;;;;;;;9.93;5.57;;;14.30;66.50;;;;;;6276886;22;20007;-65
2021/10/20 07:37:57;;;;;;;12.35;5.53;;;14.50;66.40;;;;;;6276908;22;20004;-65
2021/10/20 07:40:23;;;;;;;8.48;5.68;;;14.50;66.30;;;;;;6276769;22;20438;-65
2021/10/20 07:42:49;;;;;;;10.20;5.45;;;14.60;66.20;;;;;;6275008;22;20006;-65
2021/10/20 07:45:19;;;;;;;14.38;5.88;;;14.60;66.00;;;;;;6276928;22;20024;-65
2021/10/20 07:47:47;;;;;;;9.95;6.25;;;14.70;65.80;;;;;;6276712;22;20095;-65
2021/10/20 07:50:13;;;;;;;11.40;6.00;;;14.80;65.70;;;;;;6276856;22;19996;-65
2021/10/20 07:52:40;;;;;;;11.07;6.40;;;14.80;65.60;;;;;;6276769;22;20007;-65
2021/10/20 07:55:06;;;;;;;10.65;5.53;;;14.90;65.50;;;;;;6276899;22;20079;-65
2021/10/20 07:57:36;;;;;;;13.02;6.03;;;15.00;65.40;;;;;;6276780;22;20418;-65
2021/10/20 08:00:03;;;;;;;14.88;7.13;;;15.00;65.30;;;;;;6276622;22;20003;-66
2021/10/20 08:02:29;;;;;;;42.75;12.27;;;15.10;65.00;;;;;;6276735;22;20004;-65
2021/10/20 08:04:55;;;;;;;32.83;11.02;;;15.20;64.70;;;;;;6276742;22;20027;-66
2021/10/20 08:07:21;;;;;;;15.13;7.63;;;15.30;64.70;;;;;;6276658;22;20427;-66
2021/10/20 08:09:48;;;;;;;14.50;7.07;;;15.30;64.60;;;;;;6276585;22;20000;-66
2021/10/20 08:12:16;;;;;;;26.98;7.43;;;15.40;64.20;;;;;;6276402;22;20406;-64
2021/10/20 08:14:43;;;;;;;13.70;7.22;;;15.40;64.00;;;;;;6276757;22;20000;-64
2021/10/20 08:17:09;;;;;;;19.60;7.70;;;15.50;64.80;;;;;;6276657;22;20486;-65
2021/10/20 08:19:36;;;;;;;12.23;6.50;;;15.50;63.90;;;;;;6276664;22;20000;-66
2021/10/20 08:22:02;;;;;;;13.15;7.18;;;15.60;64.00;;;;;;6276649;22;20006;-65
2021/10/20 08:24:28;;;;;;;16.50;9.60;;;15.70;64.10;;;;;;6275050;22;20304;-66
2021/10/20 08:26:54;;;;;;;27.40;9.10;;;15.70;63.90;;;;;;6276408;22;20002;-66
2021/10/20 08:29:20;;;;;;;23.73;10.02;;;15.80;63.80;;;;;;6276507;22;20304;-65
2021/10/20 08:31:46;;;;;;;24.52;12.02;;;15.90;63.70;;;;;;6276466;22;20427;-65
2021/10/20 08:34:12;;;;;;;22.00;11.65;;;15.90;63.30;;;;;;6276497;22;20023;-65
2021/10/20 08:36:38;;;;;;;27.88;13.75;;;16.00;63.20;;;;;;6276610;22;20423;-65
2021/10/20 08:39:04;;;;;;;22.35;13.35;;;16.10;62.70;;;;;;6276414;22;19999;-65
2021/10/20 08:41:30;;;;;;;34.65;15.18;;;16.20;62.80;;;;;;6276498;22;20011;-66
2021/10/20 08:43:58;;;;;;;37.47;16.80;;;16.30;62.50;;;;;;6276382;22;19999;-66
2021/10/20 08:46:26;;;;;;;37.08;15.70;;;16.40;62.10;;;;;;6276370;22;20007;-66
2021/10/20 08:48:56;;;;;;;30.17;16.13;;;16.40;62.10;;;;;;6276210;22;20082;-67
2021/10/20 08:51:24;;;;;;;28.38;15.57;;;16.50;61.80;;;;;;6276408;22;20003;-66
2021/10/20 08:53:51;;;;;;;41.10;18.35;;;16.60;62.00;;;;;;6276319;22;20071;-65
2021/10/20 08:56:18;;;;;;;32.30;17.60;;;16.60;61.40;;;;;;6276326;22;20004;-65
2021/10/20 08:58:44;;;;;;;35.05;19.73;;;16.70;61.50;;;;;;6276249;22;20003;-66
2021/10/20 09:01:11;;;;;;;45.15;20.65;;;16.80;61.20;;;;;;6276051;22;20075;-66
2021/10/20 09:03:37;;;;;;;35.88;18.95;;;16.90;60.90;;;;;;6276294;22;20046;-66
2021/10/20 09:06:02;;;;;;;31.63;18.05;;;16.90;61.00;;;;;;6276310;22;20423;-66
2021/10/20 09:08:40;;;;;;;56.75;23.38;;;17.00;61.10;;;;;;6274692;22;20003;-66
2021/10/20 09:11:33;;;;;;;46.75;22.45;;;17.10;60.30;;;;;;6276219;22;20003;-65
2021/10/20 09:14:11;;;;;;;38.45;20.45;;;17.20;60.00;;;;;;6276034;22;20015;-65
2021/10/20 09:16:39;;;;;;;40.42;20.33;;;17.30;60.10;;;;;;6276378;22;20427;-66
2021/10/20 09:19:16;;;;;;;34.50;17.95;;;17.30;59.80;;;;;;6276250;22;20011;-66
2021/10/20 09:21:57;;;;;;;39.38;16.65;;;17.40;59.80;;;;;;6276023;22;20004;-66
2021/10/20 09:24:26;;;;;;;32.60;14.60;;;17.50;59.60;;;;;;6276222;22;20000;-66
2021/10/20 09:26:56;;;;;;;25.08;12.60;;;17.60;59.50;;;;;;6276231;22;20062;-65
2021/10/20 09:29:24;;;;;;;21.70;10.95;;;17.60;59.50;;;;;;6276333;22;20082;-66
2021/10/20 09:31:51;;;;;;;24.63;11.40;;;17.70;59.30;;;;;;6275880;22;20074;-66
2021/10/20 09:34:17;;;;;;;38.13;13.43;;;17.70;59.20;;;;;;6275762;22;20420;-65
2021/10/20 09:36:43;;;;;;;27.33;11.68;;;17.80;58.70;;;;;;6276213;22;20004;-65
2021/10/20 09:39:10;;;;;;;23.02;11.93;;;17.90;58.80;;;;;;6276036;22;20098;-66
2021/10/20 09:41:36;;;;;;;19.15;10.13;;;18.00;58.70;;;;;;6276104;22;19996;-66
2021/10/20 09:44:02;;;;;;;22.00;11.07;;;18.00;58.60;;;;;;6276132;22;20000;-66
2021/10/20 09:46:31;;;;;;;24.65;10.60;;;18.10;58.50;;;;;;6274511;22;20445;-66
2021/10/20 09:49:02;;;;;;;20.00;9.30;;;18.20;58.10;;;;;;6275937;22;20053;-66
2021/10/20 09:51:28;;;;;;;21.15;9.10;;;18.30;58.30;;;;;;6276204;22;20428;-66
2021/10/20 09:53:54;;;;;;;22.60;9.77;;;18.40;58.10;;;;;;6276034;22;20015;-65
2021/10/20 09:56:27;;;;;;;17.88;9.57;;;18.50;57.90;;;;;;6276061;22;20141;-66
2021/10/20 09:58:53;;;;;;;19.00;8.90;;;18.50;57.90;;;;;;6276080;22;20008;-66
2021/10/20 10:01:22;;;;;;;32.63;8.98;;;18.60;58.00;;;;;;6275886;22;20007;-66
2021/10/20 10:03:49;;;;;;;23.42;9.73;;;18.70;58.00;;;;;;6275981;22;20003;-66
2021/10/20 10:06:15;;;;;;;21.73;10.30;;;18.80;57.80;;;;;;6275848;22;20019;-66
2021/10/20 10:08:42;;;;;;;22.95;9.40;;;18.80;56.90;;;;;;6275862;22;20031;-65
2021/10/20 10:11:08;;;;;;;58.80;11.25;;;18.90;56.70;;;;;;6275734;22;20000;-66
2021/10/20 10:13:45;;;;;;;28.63;8.73;;;19.00;56.50;;;;;;6275730;22;20050;-66
2021/10/20 10:16:12;;;;;;;16.95;8.32;;;19.00;55.80;;;;;;6275958;22;20003;-66
2021/10/20 10:18:39;;;;;;;19.27;9.63;;;19.20;55.80;;;;;;6275932;22;20077;-66
2021/10/20 10:21:27;;;;;;;18.52;9.05;;;19.20;55.50;;;;;;6276036;22;20049;-66
2021/10/20 10:23:55;;;;;;;18.17;9.27;;;19.30;55.90;;;;;;6275650;22;20008;-66
2021/10/20 10:26:21;;;;;;;22.38;8.52;;;19.40;55.30;;;;;;6275485;22;20019;-66
2021/10/20 10:29:09;;;;;;;20.85;7.55;;;19.50;54.90;;;;;;6275750;22;20007;-66
2021/10/20 10:31:38;;;;;;;28.10;7.65;;;19.50;55.30;;;;;;6274279;22;20004;-66
2021/10/20 10:34:04;;;;;;;20.50;7.22;;;19.60;54.80;;;;;;6276271;22;20000;-66
2021/10/20 10:36:30;;;;;;;26.67;8.50;;;19.70;54.70;;;;;;6277497;22;20327;-66
2021/10/20 10:38:59;;;;;;;10.38;6.15;;;19.80;54.60;;;;;;6275123;22;20390;-65
2021/10/20 10:41:35;;;;;;;15.63;6.88;;;19.80;54.40;;;;;;6277020;22;20046;-66
2021/10/20 10:44:10;;;;;;;11.02;6.07;;;19.90;54.20;;;;;;6275965;22;20082;-66
2021/10/20 10:46:45;;;;;;;12.65;6.03;;;19.90;54.00;;;;;;6277285;22;20053;-66
2021/10/20 10:49:28;;;;;;;14.82;6.30;;;20.00;53.80;;;;;;6277337;22;20374;-66
2021/10/20 10:52:05;;;;;;;15.07;6.47;;;20.10;54.00;;;;;;6275987;22;20006;-66
2021/10/20 10:54:39;;;;;;;16.40;7.47;;;20.10;53.60;;;;;;6277557;22;20022;-66
2021/10/20 10:57:15;;;;;;;15.18;8.00;;;20.20;53.10;;;;;;6277506;22;20419;-66
2021/10/20 11:00:11;;;;;;;21.85;7.85;;;20.30;52.60;;;;;;6277708;22;20437;-66
2021/10/20 11:02:40;;;;;;;21.15;7.82;;;20.30;52.60;;;;;;6277065;22;20027;-66
2021/10/20 11:05:07;;;;;;;16.33;7.60;;;20.40;52.10;;;;;;6277189;22;19995;-66
2021/10/20 11:07:34;;;;;;;16.95;6.60;;;20.40;52.10;;;;;;6277162;22;20010;-67
2021/10/20 11:10:01;;;;;;;13.07;6.80;;;20.40;52.10;;;;;;6277270;22;20113;-67
2021/10/20 11:12:27;;;;;;;17.90;6.63;;;20.50;52.20;;;;;;6276679;22;20010;-66
2021/10/20 11:14:55;;;;;;;22.08;6.82;;;20.60;52.30;;;;;;6277160;22;20000;-66
2021/10/20 11:17:22;;;;;;;17.88;6.53;;;20.60;52.20;;;;;;6277196;22;20053;-66
2021/10/20 11:19:48;;;;;;;14.48;6.38;;;20.70;52.20;;;;;;6276845;22;20011;-67
2021/10/20 11:22:22;;;;;;;13.43;6.30;;;20.80;52.00;;;;;;6277015;22;20000;-66
2021/10/20 11:24:52;;;;;;;27.25;7.10;;;20.90;51.90;;;;;;6277245;22;20110;-67
2021/10/20 11:27:22;;;;;;;15.10;5.80;;;20.90;51.90;;;;;;6277224;22;20335;-66
2021/10/20 11:29:50;;;;;;;16.30;5.72;;;21.00;51.70;;;;;;6277772;22;20323;-66
2021/10/20 11:32:17;;;;;;;13.50;6.47;;;21.00;51.60;;;;;;6277327;22;20049;-66
2021/10/20 11:34:45;;;;;;;14.73;5.68;;;21.10;51.30;;;;;;6275507;22;20394;-66
2021/10/20 11:37:13;;;;;;;33.97;5.80;;;21.20;51.40;;;;;;6277001;22;20075;-66
2021/10/20 11:39:54;;;;;;;14.80;5.05;;;21.20;51.50;;;;;;6277042;22;20000;-66
2021/10/20 11:42:20;;;;;;;11.35;5.03;;;21.40;51.60;;;;;;6277055;22;19996;-66
2021/10/20 11:44:46;;;;;;;14.02;5.05;;;21.40;51.10;;;;;;6276804;22;20057;-66
2021/10/20 11:47:17;;;;;;;8.43;4.47;;;21.50;50.70;;;;;;6276851;22;20074;-66
2021/10/20 11:49:53;;;;;;;7.90;4.45;;;21.60;50.60;;;;;;6276846;22;20358;-66
2021/10/20 11:52:22;;;;;;;11.02;4.72;;;21.70;50.30;;;;;;6276363;22;19995;-67
2021/10/20 11:54:48;;;;;;;12.60;4.90;;;21.80;50.00;;;;;;6276939;22;20002;-65
2021/10/20 11:57:18;;;;;;;9.93;4.60;;;21.90;49.80;;;;;;6276564;22;20075;-66
2021/10/20 11:59:45;;;;;;;19.73;4.85;;;22.00;50.30;;;;;;6276193;22;20032;-66
2021/10/20 12:02:12;;;;;;;13.43;4.68;;;22.10;50.30;;;;;;6276648;22;20106;-66
2021/10/20 12:04:40;;;;;;;16.95;4.55;;;22.10;50.30;;;;;;6276454;22;20420;-65
2021/10/20 12:07:07;;;;;;;15.40;4.45;;;22.20;50.40;;;;;;6276721;22;20427;-68
2021/10/20 12:09:34;;;;;;;11.20;4.32;;;22.30;50.10;;;;;;6276901;22;20000;-69
2021/10/20 12:12:02;;;;;;;7.75;4.68;;;22.40;50.00;;;;;;6276612;22;20006;-68
2021/10/20 12:14:36;;;;;;;9.82;4.38;;;22.40;50.00;;;;;;6276955;22;19996;-69
2021/10/20 12:17:05;;;;;;;7.35;4.40;;;22.50;49.90;;;;;;6275313;22;20004;-69
2021/10/20 12:19:33;;;;;;;7.38;3.75;;;22.50;50.40;;;;;;6276059;22;20057;-68
2021/10/20 12:22:06;;;;;;;18.85;4.70;;;22.50;50.00;;;;;;6276585;22;20002;-68
2021/10/20 12:24:42;;;;;;;12.82;4.18;;;22.60;49.70;;;;;;6276527;22;20003;-68
2021/10/20 12:27:10;;;;;;;10.35;3.72;;;22.60;49.60;;;;;;6276292;22;20023;-67
2021/10/20 12:29:44;;;;;;;6.53;3.53;;;22.60;49.60;;;;;;6274969;22;20004;-67
2021/10/20 12:32:18;;;;;;;;;;;22.60;49.60;;;;;;6276619;22;20091;-67
2021/10/20 12:35:05;;;;;;;4.97;3.35;;;22.70;50.70;;;;;;6276411;22;19906;-68
2021/10/20 12:37:37;;;;;;;8.38;4.57;;;22.80;49.50;;;;;;6276634;22;20431;-68